Tropical Cyclones
[Index]
Main Index Home Page Stock Weather Photos Extreme Storms Discussion Storm News and Storm Chasing Reports Tropical Cyclones / Hurricanes / Typhoons Weather Data and Links Wild Fires / Bushfires Weather Observation Techniques Weather Picture Catalogue Tornado Pictures and Reports Stock Video Footage and DVDs for sale
Season 1996-1997 Tropical Cyclone KARLETTE Track Map
Season 1996-1997 Summaries: [BoM-AU] [JTWC-AU] [JTWC-SIO] [JTWC-SPAC] [JTWC-SH]
<<- Previous TC | JTWC 1996-1997 Season | Next TC ->>

click for intensity scale information  Lat/long Grid: Show Hide

 Date Labels: Show Hide

Joint Typhoon Warning Centre Cyclone Data

Name: KARLETTE

11 Feb 1997 00:00 UTC to 26 Feb 1997 06:00 UTC

    date/time    lat    long     hPa   cat  kts
1997-02-11 00   13.2    95.6                  15          
1997-02-11 06   13.3    94.6                  15          
1997-02-11 12   13.3    93.7                  15          
1997-02-11 18   13.3    92.8                  15          
1997-02-12 00   13.3    91.9                  15          
1997-02-12 06   13.2    91.1                  15          
1997-02-12 12   13.1    90.4                  15          
1997-02-12 18   13.0    89.9                  15          
1997-02-13 00   12.9    89.6                  15          
1997-02-13 06   12.9    89.3                  15          
1997-02-13 12   12.9    88.9                  15          
1997-02-13 18   13.0    88.4                  15          
1997-02-14 00   13.1    87.8                  15          
1997-02-14 06   13.3    87.2                  20          
1997-02-14 12   13.5    86.6                  25          
1997-02-14 18   13.7    86.0                  25          
1997-02-15 00   14.1    85.4                  25          
1997-02-15 06   14.6    84.5                  25          
1997-02-15 12   15.1    83.7                  25          
1997-02-15 18   15.4    83.0                  25          
1997-02-16 00   15.4    82.3                  25          
1997-02-16 06   15.4    81.6                  30          
1997-02-16 12   15.4    80.8                  35          
1997-02-16 18   15.1    79.9            1     40          
1997-02-17 00   15.0    79.1            1     45          
1997-02-17 06   15.1    78.4            1     45          
1997-02-17 12   15.2    77.9            1     45          
1997-02-17 18   15.5    77.2            1     45          
1997-02-18 00   15.8    76.4            1     45          
1997-02-18 06   16.2    75.4            1     45          
1997-02-18 12   16.4    74.2            1     45          
1997-02-18 18   16.6    73.1            1     45          
1997-02-19 00   16.9    72.4            1     45          
1997-02-19 06   17.2    71.8            1     45          
1997-02-19 12   17.5    71.3            1     45          
1997-02-19 18   17.8    70.7            1     45          
1997-02-20 00   18.0    70.0            1     45          
1997-02-20 06   18.0    69.3            1     45          
1997-02-20 12   18.0    68.7            1     50          
1997-02-20 18   18.2    68.0            2     55          
1997-02-21 00   18.6    67.3            2     55          
1997-02-21 06   19.2    66.3            2     55          
1997-02-21 12   19.8    64.9            2     60          
1997-02-21 18   20.2    63.5            2     65          
1997-02-22 00   20.8    62.4            2     65          
1997-02-22 06   21.4    61.3            2     65          
1997-02-22 12   21.9    60.2            2     65          
1997-02-22 18   22.5    59.2            2     65          
1997-02-23 00   23.2    58.4            2     60          
1997-02-23 06   24.2    57.8            2     55          
1997-02-23 12   25.3    57.3            2     55          
1997-02-23 18   26.5    57.0            1     50          
1997-02-24 00   27.6    56.7            1     50          
1997-02-24 06   28.8    56.5            1     45          
1997-02-24 12   30.5    56.3            1     45          
1997-02-24 18   32.4    56.8            1     45          
1997-02-25 00   34.3    57.4            1     40          
1997-02-25 06   35.8    57.7            1     40          
1997-02-25 12   37.1    57.7            1     40          
1997-02-25 18   38.3    56.9                  35          
1997-02-26 00   39.2    56.4                  30          
1997-02-26 06   39.9    55.6                  30          
Winds are 1-min average.

Tropical cyclone tracks developed by Michael Bath using data from the Joint Typhoon Warning Centre Best Tracks and Google Maps.


[Australian Severe Weather index] [Copyright Notice] [Email Contacts] [Search This Site] [Privacy Policy]
Document: tropical_cyclone_karlette.htm Updated: 18 September 2016